Time;durP1;ratioP1;P1;durP2;ratioP2;P2;SDS_P1;SDS_P2;PMS_P1;PMS_P2;Temp;Humidity;BMP_temperature;BMP_pressure;BME280_temperature;BME280_humidity;BME280_pressure;Samples;Min_cycle;Max_cycle;Signal;HPM_P1;HPM_P2
2021/06/17 00:01:46;;;;;;;0.10;0.10;;;20.70;69.80;;;;;;5037513;28;20120;-75
2021/06/17 00:04:12;;;;;;;0.03;0.03;;;20.70;69.50;;;;;;5055514;28;20120;-73
2021/06/17 00:06:38;;;;;;;0.13;0.13;;;20.80;69.50;;;;;;5037660;28;20029;-74
2021/06/17 00:09:05;;;;;;;0.17;0.17;;;20.80;69.40;;;;;;5037167;28;20025;-74
2021/06/17 00:11:31;;;;;;;0.20;0.20;;;20.60;70.20;;;;;;5055182;28;20031;-74
2021/06/17 00:13:57;;;;;;;0.20;0.20;;;20.40;71.20;;;;;;5037736;28;20442;-74
2021/06/17 00:16:23;;;;;;;0.25;0.25;;;20.40;71.00;;;;;;5055161;28;20104;-73
2021/06/17 00:18:49;;;;;;;0.10;0.10;;;20.40;71.00;;;;;;5055035;28;20021;-74
2021/06/17 00:21:16;;;;;;;0.10;0.10;;;20.50;70.80;;;;;;5055000;28;20079;-74
2021/06/17 00:23:42;;;;;;;0.10;0.10;;;20.50;70.70;;;;;;5037230;28;20060;-74
2021/06/17 00:26:08;;;;;;;0.08;0.08;;;20.60;70.40;;;;;;5055144;28;20087;-74
2021/06/17 00:28:34;;;;;;;0.10;0.10;;;20.60;69.90;;;;;;5054894;28;20039;-74
2021/06/17 00:31:00;;;;;;;0.10;0.10;;;20.60;70.10;;;;;;5036950;28;20480;-74
2021/06/17 00:33:26;;;;;;;0.20;0.20;;;20.60;70.10;;;;;;5037129;28;20029;-74
2021/06/17 00:35:52;;;;;;;0.10;0.10;;;20.60;70.20;;;;;;5054890;28;20536;-74
2021/06/17 00:38:17;;;;;;;0.10;0.10;;;20.70;69.50;;;;;;5054657;28;20159;-74
2021/06/17 00:40:44;;;;;;;0.40;0.40;;;20.60;69.60;;;;;;5036956;28;20021;-74
2021/06/17 00:43:10;;;;;;;0.17;0.17;;;20.40;70.10;;;;;;5054789;28;20071;-74
2021/06/17 00:45:41;;;;;;;0.40;0.30;;;20.20;70.90;;;;;;5054728;28;20021;-74
2021/06/17 00:48:08;;;;;;;0.10;0.10;;;20.20;71.20;;;;;;5054376;28;20025;-74
2021/06/17 00:50:39;;;;;;;0.00;0.00;;;20.10;71.70;;;;;;5036688;28;20032;-74
2021/06/17 00:53:13;;;;;;;0.10;0.10;;;20.20;71.70;;;;;;5036571;28;20384;-74
2021/06/17 00:55:40;;;;;;;0.30;0.30;;;20.20;71.70;;;;;;5054544;28;20025;-74
2021/06/17 00:58:06;;;;;;;0.10;0.10;;;20.10;71.90;;;;;;5054209;28;20025;-74
2021/06/17 01:00:32;;;;;;;0.10;0.10;;;20.00;72.20;;;;;;5054291;28;20072;-74
2021/06/17 01:02:58;;;;;;;0.10;0.10;;;20.00;72.20;;;;;;5054279;28;20029;-74
2021/06/17 01:05:24;;;;;;;0.10;0.10;;;20.00;72.60;;;;;;5054368;28;20088;-74
2021/06/17 01:07:56;;;;;;;0.10;0.10;;;20.00;72.70;;;;;;5053275;28;20452;-74
2021/06/17 01:10:46;;;;;;;0.10;0.10;;;20.00;72.90;;;;;;5054165;28;20029;-74
2021/06/17 01:13:30;;;;;;;0.10;0.10;;;20.00;73.10;;;;;;5054061;28;20029;-74
2021/06/17 01:16:26;;;;;;;0.10;0.10;;;20.00;72.60;;;;;;5036279;28;20036;-74
2021/06/17 01:18:56;;;;;;;0.10;0.10;;;20.00;73.10;;;;;;5047271;28;20120;-74
2021/06/17 01:21:49;;;;;;;0.10;0.10;;;20.00;73.30;;;;;;5035969;28;20029;-75
2021/06/17 01:24:17;;;;;;;;;;;20.10;72.40;;;;;;5054430;28;20607;-74
2021/06/17 01:27:25;;;;;;;0.03;0.03;;;20.00;72.50;;;;;;5036041;28;19905;-74
2021/06/17 01:29:56;;;;;;;0.10;0.10;;;19.80;73.10;;;;;;5053769;28;20385;-74
2021/06/17 01:32:24;;;;;;;0.70;0.70;;;19.80;73.50;;;;;;5053772;28;20022;-73
2021/06/17 01:34:52;;;;;;;0.32;0.32;;;19.50;74.30;;;;;;5019560;28;20389;-74
2021/06/17 01:37:21;;;;;;;0.28;0.28;;;19.30;74.90;;;;;;5035514;28;20033;-74
2021/06/17 01:39:49;;;;;;;0.20;0.20;;;19.10;76.10;;;;;;5035874;28;20029;-74
2021/06/17 01:42:15;;;;;;;0.43;0.43;;;19.00;76.40;;;;;;5053478;28;20044;-74
2021/06/17 01:44:43;;;;;;;0.10;0.10;;;18.90;77.00;;;;;;5053592;28;20473;-74
2021/06/17 01:47:11;;;;;;;0.40;0.40;;;18.70;77.70;;;;;;5053413;28;20361;-74
2021/06/17 01:49:40;;;;;;;0.10;0.10;;;18.60;79.10;;;;;;5053513;28;20104;-74
2021/06/17 01:52:07;;;;;;;0.32;0.32;;;18.60;78.90;;;;;;5019039;28;20028;-74
2021/06/17 01:54:37;;;;;;;0.10;0.10;;;18.60;78.90;;;;;;5053347;28;20021;-74
2021/06/17 01:57:03;;;;;;;0.68;0.68;;;18.70;78.70;;;;;;5035293;28;20028;-74
2021/06/17 01:59:32;;;;;;;1.35;0.63;;;18.80;78.30;;;;;;5053214;28;20037;-74
2021/06/17 02:02:00;;;;;;;0.20;0.20;;;18.70;78.80;;;;;;5035234;28;20500;-74
2021/06/17 02:04:28;;;;;;;0.15;0.15;;;18.70;78.60;;;;;;5053258;28;20052;-74
2021/06/17 02:06:55;;;;;;;0.10;0.10;;;18.50;79.60;;;;;;5035206;28;20037;-74
2021/06/17 02:09:25;;;;;;;0.10;0.10;;;18.50;80.00;;;;;;5053014;28;20054;-74
2021/06/17 02:14:24;;;;;;;0.17;0.17;;;18.50;79.70;;;;;;4969777;28;20104;-75
2021/06/17 02:16:52;;;;;;;0.10;0.10;;;18.60;79.70;;;;;;4954154;28;20027;-75
2021/06/17 02:19:19;;;;;;;0.30;0.30;;;18.50;79.40;;;;;;4953909;28;20482;-74
2021/06/17 02:21:50;;;;;;;0.10;0.10;;;18.50;79.50;;;;;;4954063;28;20019;-72
2021/06/17 02:24:17;;;;;;;0.10;0.10;;;18.50;79.70;;;;;;4971318;28;20019;-72
2021/06/17 02:26:47;;;;;;;0.10;0.10;;;18.50;80.10;;;;;;4971312;28;20035;-72
2021/06/17 02:29:17;;;;;;;0.10;0.10;;;18.70;79.70;;;;;;4971114;28;20106;-72
2021/06/17 02:31:46;;;;;;;0.10;0.10;;;18.80;78.90;;;;;;4970994;28;20026;-72
2021/06/17 02:34:13;;;;;;;0.13;0.13;;;18.90;78.60;;;;;;4971237;28;20164;-72
2021/06/17 02:36:45;;;;;;;0.20;0.20;;;18.80;78.20;;;;;;4971026;28;20035;-72
2021/06/17 02:39:13;;;;;;;0.10;0.10;;;18.80;78.60;;;;;;4971016;28;20027;-72
2021/06/17 02:41:45;;;;;;;0.10;0.10;;;18.90;77.80;;;;;;4953969;28;20496;-72
2021/06/17 02:44:12;;;;;;;0.15;0.15;;;18.90;78.60;;;;;;4971078;28;20046;-72
2021/06/17 02:46:37;;;;;;;0.20;0.20;;;18.90;77.90;;;;;;4970591;28;20030;-72
2021/06/17 02:49:07;;;;;;;0.10;0.10;;;19.00;77.90;;;;;;4953428;28;20027;-72
2021/06/17 02:51:33;;;;;;;0.60;0.55;;;19.00;77.60;;;;;;4953424;28;20088;-72
2021/06/17 02:53:59;;;;;;;0.10;0.10;;;19.00;77.70;;;;;;4970961;28;20030;-72
2021/06/17 02:56:40;;;;;;;1.30;0.52;;;18.90;77.60;;;;;;4937322;28;20019;-72
2021/06/17 02:59:20;;;;;;;0.10;0.10;;;18.90;78.00;;;;;;4953498;28;20069;-72
2021/06/17 03:02:11;;;;;;;0.15;0.15;;;18.70;78.40;;;;;;4970592;28;20510;-72
2021/06/17 03:04:43;;;;;;;0.10;0.10;;;18.80;78.40;;;;;;4970749;28;20058;-72
2021/06/17 03:07:21;;;;;;;0.20;0.20;;;18.70;78.70;;;;;;4937416;28;20057;-72
2021/06/17 03:09:58;;;;;;;0.10;0.10;;;18.60;79.80;;;;;;4953484;28;20042;-72
2021/06/17 03:12:26;;;;;;;0.22;0.22;;;18.70;78.60;;;;;;4953203;28;20082;-72
2021/06/17 03:14:55;;;;;;;0.20;0.20;;;18.60;79.20;;;;;;4953211;28;20053;-72
2021/06/17 03:17:23;;;;;;;0.85;0.73;;;18.70;79.30;;;;;;4953183;28;20030;-72
2021/06/17 03:19:56;;;;;;;0.10;0.10;;;18.60;79.20;;;;;;4953190;28;20030;-72
2021/06/17 03:22:27;;;;;;;0.13;0.13;;;18.80;79.20;;;;;;4970540;28;20088;-72
2021/06/17 03:24:58;;;;;;;0.20;0.20;;;18.80;78.80;;;;;;4970524;28;20087;-72
2021/06/17 03:27:25;;;;;;;0.13;0.13;;;18.80;78.90;;;;;;4970312;28;20035;-72
2021/06/17 03:29:52;;;;;;;0.10;0.10;;;18.80;79.50;;;;;;4970284;28;20031;-72
2021/06/17 03:32:20;;;;;;;0.10;0.10;;;18.70;79.40;;;;;;4952497;28;20023;-72
2021/06/17 03:34:47;;;;;;;0.20;0.20;;;18.70;79.40;;;;;;4953070;28;20027;-72
2021/06/17 03:37:16;;;;;;;0.10;0.10;;;18.50;80.00;;;;;;4952914;28;20023;-72
2021/06/17 03:39:44;;;;;;;0.10;0.10;;;18.40;80.20;;;;;;4952976;28;20027;-72
2021/06/17 03:42:11;;;;;;;0.10;0.10;;;18.40;80.80;;;;;;4970168;28;20023;-72
2021/06/17 03:44:38;;;;;;;0.10;0.10;;;18.40;81.20;;;;;;4970036;28;20092;-72
2021/06/17 03:47:05;;;;;;;0.10;0.10;;;18.60;80.30;;;;;;4970020;28;20034;-72
2021/06/17 03:49:32;;;;;;;0.10;0.10;;;18.80;79.70;;;;;;4970000;28;20027;-72
2021/06/17 03:51:58;;;;;;;0.10;0.10;;;18.80;79.70;;;;;;4970017;28;20490;-72
2021/06/17 03:54:27;;;;;;;0.10;0.10;;;18.70;79.80;;;;;;4952606;28;20034;-72
2021/06/17 03:57:05;;;;;;;0.10;0.10;;;18.80;79.20;;;;;;4969994;28;20087;-72
2021/06/17 03:59:35;;;;;;;0.20;0.20;;;18.90;79.40;;;;;;4952515;28;20023;-72
2021/06/17 04:02:01;;;;;;;0.05;0.05;;;18.90;79.40;;;;;;4952747;28;20160;-72
2021/06/17 04:04:27;;;;;;;0.10;0.10;;;18.90;79.20;;;;;;4952768;28;20038;-72
2021/06/17 04:06:57;;;;;;;0.10;0.10;;;19.00;78.80;;;;;;4936696;28;20027;-72
2021/06/17 04:09:27;;;;;;;0.57;0.57;;;19.00;78.80;;;;;;4969860;28;20023;-72
2021/06/17 04:11:59;;;;;;;0.20;0.20;;;18.90;79.50;;;;;;4969732;28;20123;-72
2021/06/17 04:14:27;;;;;;;0.10;0.10;;;19.00;79.90;;;;;;4969846;28;20035;-72
2021/06/17 04:16:54;;;;;;;10.98;0.63;;;19.00;79.90;;;;;;4969688;28;20038;-72
2021/06/17 04:19:23;;;;;;;0.10;0.10;;;18.90;80.40;;;;;;4936710;28;20036;-72
2021/06/17 04:21:51;;;;;;;0.50;0.50;;;18.90;80.70;;;;;;4952350;28;20370;-72
2021/06/17 04:24:19;;;;;;;0.10;0.10;;;18.90;80.80;;;;;;4969660;28;20205;-72
2021/06/17 04:26:45;;;;;;;0.10;0.10;;;19.00;81.00;;;;;;4936438;28;20109;-72
2021/06/17 04:29:14;;;;;;;0.20;0.20;;;19.00;81.30;;;;;;4969551;28;20129;-72
2021/06/17 04:31:41;;;;;;;0.30;0.30;;;19.10;81.00;;;;;;4969511;28;20027;-72
2021/06/17 04:34:07;;;;;;;0.45;0.45;;;19.10;81.60;;;;;;4952280;28;20031;-72
2021/06/17 04:36:33;;;;;;;0.30;0.30;;;19.20;82.00;;;;;;4952231;28;20080;-72
2021/06/17 04:38:58;;;;;;;0.10;0.10;;;19.20;82.20;;;;;;4951977;28;20023;-72
2021/06/17 04:41:24;;;;;;;0.20;0.20;;;19.20;81.80;;;;;;4969197;28;20505;-72
2021/06/17 04:43:50;;;;;;;1.90;0.60;;;19.40;81.90;;;;;;4954334;28;20019;-72
2021/06/17 04:46:19;;;;;;;0.08;0.08;;;19.50;79.90;;;;;;4955006;28;20066;-72
2021/06/17 04:48:46;;;;;;;0.00;0.00;;;19.60;79.30;;;;;;4972529;28;20019;-72
2021/06/17 04:51:13;;;;;;;0.20;0.20;;;19.70;79.60;;;;;;4972652;28;20053;-72
2021/06/17 04:53:39;;;;;;;0.85;0.65;;;19.80;79.50;;;;;;4972585;28;20053;-72
2021/06/17 04:56:05;;;;;;;0.25;0.25;;;19.90;80.00;;;;;;4972664;28;20027;-72
2021/06/17 04:58:33;;;;;;;0.20;0.20;;;20.00;79.10;;;;;;4954812;28;20478;-72
2021/06/17 05:00:59;;;;;;;0.10;0.10;;;20.10;79.50;;;;;;4972515;28;20466;-72
2021/06/17 05:03:24;;;;;;;0.15;0.15;;;20.20;79.20;;;;;;4955107;28;20023;-72
2021/06/17 05:05:52;;;;;;;0.15;0.15;;;20.40;80.00;;;;;;4955001;28;20023;-72
2021/06/17 05:10:48;;;;;;;0.10;0.10;;;20.50;80.60;;;;;;4972391;28;20069;-72
2021/06/17 05:13:16;;;;;;;0.10;0.10;;;20.60;80.70;;;;;;4971903;28;20065;-73
2021/06/17 05:15:42;;;;;;;0.38;0.38;;;20.70;81.10;;;;;;4955092;28;20027;-73
2021/06/17 05:18:07;;;;;;;0.10;0.10;;;20.70;80.60;;;;;;4971107;28;20386;-73
2021/06/17 05:20:33;;;;;;;0.05;0.05;;;20.80;80.60;;;;;;4954804;28;20023;-72
2021/06/17 05:22:59;;;;;;;0.10;0.10;;;21.00;79.30;;;;;;4938831;28;20023;-72
2021/06/17 05:25:25;;;;;;;0.10;0.10;;;21.20;79.20;;;;;;4954888;28;20027;-72
2021/06/17 05:27:51;;;;;;;0.20;0.20;;;21.30;77.90;;;;;;4954294;28;20063;-72
2021/06/17 05:30:17;;;;;;;0.10;0.10;;;21.50;78.00;;;;;;4954908;28;20502;-72
2021/06/17 05:32:43;;;;;;;0.10;0.10;;;21.60;77.80;;;;;;4954599;28;20406;-73
2021/06/17 05:35:09;;;;;;;0.10;0.10;;;21.70;77.90;;;;;;4971965;28;20034;-73
2021/06/17 05:37:35;;;;;;;0.20;0.20;;;21.70;77.00;;;;;;4971611;28;20396;-72
2021/06/17 05:40:01;;;;;;;0.10;0.10;;;21.90;76.90;;;;;;4938586;28;20023;-72
2021/06/17 05:42:27;;;;;;;0.20;0.20;;;21.90;77.30;;;;;;4971571;28;20031;-71
2021/06/17 05:44:53;;;;;;;0.55;0.55;;;21.90;77.20;;;;;;4971526;28;20026;-72
2021/06/17 05:47:21;;;;;;;0.10;0.10;;;21.90;77.50;;;;;;4971220;28;20035;-72
2021/06/17 05:49:47;;;;;;;0.10;0.10;;;21.90;77.80;;;;;;4938409;28;20398;-72
2021/06/17 05:52:13;;;;;;;0.10;0.10;;;22.10;75.20;;;;;;4954290;28;20042;-72
2021/06/17 05:54:39;;;;;;;0.00;0.00;;;22.30;74.10;;;;;;4953975;28;20108;-72
2021/06/17 05:57:05;;;;;;;0.10;0.10;;;22.30;73.90;;;;;;4971329;28;20394;-72
2021/06/17 05:59:32;;;;;;;0.10;0.10;;;22.40;72.60;;;;;;4976964;28;20076;-72
2021/06/17 06:01:58;;;;;;;0.10;0.10;;;22.60;72.60;;;;;;4955022;28;20441;-72
2021/06/17 06:04:24;;;;;;;0.10;0.10;;;22.80;72.50;;;;;;4954043;28;20068;-72
2021/06/17 06:06:49;;;;;;;1.13;0.50;;;22.80;72.20;;;;;;4971325;28;20027;-73
2021/06/17 06:09:15;;;;;;;0.10;0.10;;;22.90;72.00;;;;;;4971333;28;20552;-72
2021/06/17 06:11:41;;;;;;;0.08;0.08;;;23.10;71.80;;;;;;4971169;28;20019;-72
2021/06/17 06:14:07;;;;;;;0.00;0.00;;;23.10;72.30;;;;;;4953865;28;20039;-72
2021/06/17 06:16:34;;;;;;;0.05;0.05;;;23.20;71.70;;;;;;4971337;28;20114;-73
2021/06/17 06:19:00;;;;;;;0.00;0.00;;;23.30;72.10;;;;;;4971199;28;20034;-73
2021/06/17 06:21:26;;;;;;;0.75;0.75;;;23.40;71.80;;;;;;4971160;28;20027;-73
2021/06/17 06:23:52;;;;;;;0.10;0.10;;;23.50;72.30;;;;;;4971422;28;20486;-72
2021/06/17 06:26:17;;;;;;;0.00;0.00;;;23.60;72.00;;;;;;4953769;28;20080;-72
2021/06/17 06:28:43;;;;;;;0.03;0.03;;;23.70;70.80;;;;;;4970949;28;20107;-72
2021/06/17 06:31:10;;;;;;;0.00;0.00;;;23.80;70.30;;;;;;4971115;28;20035;-73
2021/06/17 06:33:36;;;;;;;0.00;0.00;;;23.90;69.40;;;;;;4971104;28;20120;-72
2021/06/17 06:36:02;;;;;;;0.00;0.00;;;24.00;68.70;;;;;;4971011;28;20463;-72
2021/06/17 06:38:28;;;;;;;0.10;0.10;;;24.20;69.10;;;;;;4970571;28;20023;-72
2021/06/17 06:40:54;;;;;;;0.00;0.00;;;24.30;68.30;;;;;;5049490;28;20398;-73
2021/06/17 06:43:21;;;;;;;0.00;0.00;;;24.40;67.90;;;;;;4970836;28;20031;-73
2021/06/17 06:45:46;;;;;;;0.10;0.10;;;24.60;66.70;;;;;;5018529;28;20034;-72
2021/06/17 06:48:12;;;;;;;0.00;0.00;;;24.70;66.50;;;;;;4971797;28;20026;-72
2021/06/17 06:50:38;;;;;;;0.00;0.00;;;24.70;66.00;;;;;;5018970;28;20028;-74
2021/06/17 06:53:04;;;;;;;0.10;0.10;;;24.90;65.60;;;;;;5067902;28;20491;-73
2021/06/17 06:55:31;;;;;;;0.20;0.20;;;25.00;65.00;;;;;;5000694;28;20035;-74
2021/06/17 06:57:56;;;;;;;0.00;0.00;;;25.00;65.50;;;;;;5037385;28;20024;-74
2021/06/17 07:00:22;;;;;;;0.00;0.00;;;24.90;65.70;;;;;;4992894;28;20384;-73
2021/06/17 07:02:49;;;;;;;0.15;0.15;;;25.00;65.40;;;;;;5027643;28;20027;-73
2021/06/17 07:05:15;;;;;;;0.00;0.00;;;25.30;64.80;;;;;;5017953;28;20030;-74
2021/06/17 07:07:41;;;;;;;0.00;0.00;;;25.40;64.00;;;;;;4995103;28;20034;-74
2021/06/17 07:10:08;;;;;;;0.10;0.10;;;25.60;64.20;;;;;;4974570;28;20084;-73
2021/06/17 07:12:34;;;;;;;0.00;0.00;;;25.80;64.00;;;;;;5023919;28;20370;-74
2021/06/17 07:15:00;;;;;;;0.00;0.00;;;25.90;63.40;;;;;;5007446;28;20406;-74
2021/06/17 07:17:27;;;;;;;0.10;0.10;;;25.90;62.40;;;;;;5022505;28;20028;-74
2021/06/17 07:19:55;;;;;;;0.00;0.00;;;26.00;62.30;;;;;;5024908;28;20027;-74
2021/06/17 07:22:22;;;;;;;0.08;0.08;;;26.10;62.50;;;;;;5017581;28;20472;-73
2021/06/17 07:24:47;;;;;;;0.00;0.00;;;26.20;62.60;;;;;;5013437;28;20029;-74
2021/06/17 07:27:13;;;;;;;0.20;0.15;;;26.40;62.00;;;;;;4985624;28;20037;-74
2021/06/17 07:29:39;;;;;;;0.00;0.00;;;26.60;60.70;;;;;;5010820;28;20023;-74
2021/06/17 07:32:08;;;;;;;0.10;0.10;;;26.70;60.50;;;;;;4994712;28;20034;-74
2021/06/17 07:34:34;;;;;;;0.10;0.10;;;26.70;59.90;;;;;;4977901;28;20023;-74
2021/06/17 07:36:59;;;;;;;0.55;0.55;;;26.60;59.70;;;;;;5024846;28;20031;-73
2021/06/17 07:39:25;;;;;;;0.15;0.15;;;26.90;60.10;;;;;;5013751;28;20492;-74
2021/06/17 07:41:51;;;;;;;0.00;0.00;;;26.80;59.30;;;;;;5018581;28;20294;-74
2021/06/17 07:44:17;;;;;;;0.00;0.00;;;27.00;59.10;;;;;;5033960;28;20035;-73
2021/06/17 07:46:43;;;;;;;0.00;0.00;;;27.20;58.80;;;;;;5066212;28;20024;-73
2021/06/17 07:49:08;;;;;;;0.00;0.00;;;27.40;57.90;;;;;;5044854;28;20471;-72
2021/06/17 07:51:34;;;;;;;0.00;0.00;;;27.60;57.10;;;;;;5016106;28;20024;-73
2021/06/17 07:54:01;;;;;;;0.00;0.00;;;27.90;57.50;;;;;;5025571;28;20050;-73
2021/06/17 07:56:31;;;;;;;0.00;0.00;;;28.00;57.10;;;;;;5013971;28;20025;-73
2021/06/17 07:58:58;;;;;;;0.00;0.00;;;28.00;58.50;;;;;;5009346;28;20027;-73
2021/06/17 08:01:25;;;;;;;0.28;0.28;;;28.10;59.20;;;;;;4997020;28;20027;-73
2021/06/17 08:03:51;;;;;;;0.00;0.00;;;28.10;57.90;;;;;;5013178;28;20113;-73
2021/06/17 08:06:18;;;;;;;0.00;0.00;;;28.20;58.30;;;;;;5026406;28;20100;-72
2021/06/17 08:08:44;;;;;;;0.00;0.00;;;28.30;57.50;;;;;;5069436;28;20074;-73
2021/06/17 08:11:11;;;;;;;0.25;0.25;;;28.60;57.20;;;;;;5019892;28;20361;-73
2021/06/17 08:13:37;;;;;;;0.00;0.00;;;28.40;52.60;;;;;;5044823;28;20033;-73
2021/06/17 08:16:03;;;;;;;0.00;0.00;;;28.30;52.80;;;;;;5022749;28;20023;-73
2021/06/17 08:18:28;;;;;;;0.52;0.47;;;28.50;52.60;;;;;;5048658;28;20040;-73
2021/06/17 08:20:55;;;;;;;1.23;1.02;;;28.40;51.00;;;;;;4993189;28;20027;-73
2021/06/17 08:23:21;;;;;;;0.52;0.47;;;28.60;51.20;;;;;;5021315;28;20080;-73
2021/06/17 08:25:50;;;;;;;0.45;0.45;;;29.00;50.50;;;;;;4994746;28;20499;-73
2021/06/17 08:28:16;;;;;;;0.30;0.30;;;28.60;50.50;;;;;;5001510;28;20037;-72
2021/06/17 08:30:42;;;;;;;0.20;0.20;;;28.60;51.80;;;;;;5071895;28;20036;-73
2021/06/17 08:33:08;;;;;;;0.88;0.55;;;28.80;51.50;;;;;;5015299;28;20495;-73
2021/06/17 08:35:33;;;;;;;0.00;0.00;;;28.60;51.10;;;;;;5036336;28;20024;-73
2021/06/17 08:37:59;;;;;;;0.00;0.00;;;28.70;51.20;;;;;;5010877;28;20564;-73
2021/06/17 08:40:29;;;;;;;0.30;0.30;;;28.90;51.40;;;;;;5040810;28;20464;-73
2021/06/17 08:42:55;;;;;;;0.20;0.20;;;29.20;50.30;;;;;;5013454;28;20386;-73
2021/06/17 08:45:20;;;;;;;0.10;0.10;;;29.40;49.60;;;;;;4997851;28;20019;-73
2021/06/17 08:47:46;;;;;;;1.02;0.73;;;29.60;49.60;;;;;;4958062;28;20027;-73
2021/06/17 08:50:14;;;;;;;0.35;0.35;;;29.50;49.80;;;;;;4979522;28;20031;-73
2021/06/17 08:52:41;;;;;;;0.00;0.00;;;29.30;48.60;;;;;;4961999;28;20484;-74
2021/06/17 08:55:12;;;;;;;0.00;0.00;;;29.70;48.70;;;;;;5017341;28;20026;-73
2021/06/17 08:57:37;;;;;;;0.88;0.15;;;30.10;48.50;;;;;;4959201;28;20026;-74
2021/06/17 09:00:15;;;;;;;0.00;0.00;;;30.20;46.50;;;;;;5001064;28;20031;-73
2021/06/17 09:02:44;;;;;;;1.85;0.60;;;30.30;46.80;;;;;;5005336;28;20024;-73
2021/06/17 09:05:15;;;;;;;0.00;0.00;;;30.30;47.10;;;;;;5003951;28;20469;-74
2021/06/17 09:07:43;;;;;;;0.00;0.00;;;30.50;47.00;;;;;;4992891;28;20032;-74
2021/06/17 09:10:09;;;;;;;0.00;0.00;;;30.60;47.00;;;;;;5005086;28;20422;-74
2021/06/17 09:13:08;;;;;;;0.10;0.10;;;30.80;47.50;;;;;;5029947;28;20036;-74
2021/06/17 09:15:37;;;;;;;0.10;0.10;;;30.80;47.10;;;;;;4994629;28;20110;-73
2021/06/17 09:18:14;;;;;;;0.75;0.68;;;30.80;47.20;;;;;;4950761;28;20077;-73
2021/06/17 09:20:51;;;;;;;0.00;0.00;;;30.70;47.20;;;;;;5018965;28;20021;-73
2021/06/17 09:23:23;;;;;;;0.40;0.40;;;31.00;48.00;;;;;;5025906;28;20025;-74
2021/06/17 09:25:52;;;;;;;0.00;0.00;;;31.40;47.70;;;;;;4968827;28;20513;-73
2021/06/17 09:28:17;;;;;;;0.10;0.10;;;31.60;46.50;;;;;;4955969;28;20031;-73
2021/06/17 09:30:43;;;;;;;0.00;0.00;;;31.70;47.00;;;;;;4996267;28;20038;-73
2021/06/17 09:33:12;;;;;;;0.20;0.20;;;31.90;45.70;;;;;;4960956;28;20037;-73
2021/06/17 09:35:58;;;;;;;0.00;0.00;;;32.10;44.70;;;;;;5001382;28;20467;-73
2021/06/17 09:38:25;;;;;;;0.00;0.00;;;32.00;46.40;;;;;;4980793;28;20023;-72
2021/06/17 09:40:52;;;;;;;0.17;0.17;;;32.20;45.50;;;;;;5012502;28;20019;-74
2021/06/17 09:43:24;;;;;;;0.00;0.00;;;32.50;44.50;;;;;;5017075;28;20106;-74
2021/06/17 09:46:05;;;;;;;0.35;0.20;;;32.60;44.40;;;;;;4992710;28;20098;-74
2021/06/17 09:48:36;;;;;;;0.68;0.50;;;32.60;43.20;;;;;;5006747;28;20445;-74
2021/06/17 09:51:25;;;;;;;4.38;0.43;;;32.10;43.00;;;;;;4947348;28;20031;-73
2021/06/17 09:53:54;;;;;;;5.60;1.23;;;32.40;42.40;;;;;;5005100;28;20030;-73
2021/06/17 09:56:32;;;;;;;0.00;0.00;;;32.10;41.70;;;;;;5009405;28;20028;-73
2021/06/17 09:58:57;;;;;;;0.10;0.10;;;32.30;43.00;;;;;;5017010;28;20507;-73
2021/06/17 10:01:37;;;;;;;0.00;0.00;;;32.80;41.30;;;;;;5000978;28;20019;-73
2021/06/17 10:04:08;;;;;;;0.00;0.00;;;32.80;41.00;;;;;;5038982;28;20025;-73
2021/06/17 10:06:41;;;;;;;0.00;0.00;;;33.10;41.10;;;;;;5005224;28;20019;-73
2021/06/17 10:09:17;;;;;;;0.70;0.70;;;33.40;40.70;;;;;;5043592;28;20120;-73
2021/06/17 10:11:43;;;;;;;0.40;0.32;;;33.20;40.30;;;;;;5002819;28;20082;-73
2021/06/17 10:14:10;;;;;;;0.03;0.00;;;32.90;40.90;;;;;;5028445;28;20028;-73
2021/06/17 10:16:42;;;;;;;0.75;0.75;;;32.90;40.20;;;;;;5012677;28;20084;-73
2021/06/17 10:19:09;;;;;;;0.00;0.00;;;32.90;40.20;;;;;;5019974;28;20058;-73
2021/06/17 10:21:35;;;;;;;0.10;0.10;;;33.10;40.70;;;;;;5016911;28;20028;-73
2021/06/17 10:24:03;;;;;;;0.17;0.15;;;33.00;40.30;;;;;;5030214;28;20032;-73
2021/06/17 10:26:40;;;;;;;0.30;0.30;;;33.10;39.00;;;;;;5021380;28;20087;-72
2021/06/17 10:29:06;;;;;;;3.83;0.60;;;33.00;38.10;;;;;;5025567;28;20132;-73
2021/06/17 10:31:39;;;;;;;0.00;0.00;;;33.00;37.60;;;;;;5047006;28;20062;-73
2021/06/17 10:34:27;;;;;;;0.13;0.13;;;33.80;38.00;;;;;;4978836;28;20038;-73
2021/06/17 10:37:09;;;;;;;0.15;0.15;;;34.00;36.90;;;;;;5043891;28;20019;-73
2021/06/17 10:39:54;;;;;;;0.65;0.65;;;33.90;37.40;;;;;;4968285;28;20386;-73
2021/06/17 10:42:32;;;;;;;2.00;1.10;;;33.60;37.80;;;;;;5008969;28;20021;-73
2021/06/17 10:45:02;;;;;;;1.10;0.60;;;33.70;37.10;;;;;;5021386;28;20384;-73
2021/06/17 10:47:47;;;;;;;3.53;0.80;;;34.20;35.60;;;;;;5043827;28;20025;-73
2021/06/17 10:50:19;;;;;;;0.40;0.40;;;34.10;37.00;;;;;;5020614;28;20032;-73
2021/06/17 10:52:46;;;;;;;1.85;1.25;;;33.80;37.70;;;;;;5063136;28;20488;-73
2021/06/17 10:55:14;;;;;;;11.98;0.77;;;33.70;37.80;;;;;;5030356;28;20069;-73
2021/06/17 10:57:46;;;;;;;0.10;0.10;;;33.70;37.20;;;;;;5000281;28;20052;-73
2021/06/17 11:00:30;;;;;;;5.28;0.20;;;33.30;37.00;;;;;;4993321;28;20029;-73
2021/06/17 11:02:59;;;;;;;0.30;0.28;;;33.70;35.80;;;;;;5025220;28;20038;-73
2021/06/17 11:05:38;;;;;;;0.10;0.10;;;33.70;35.80;;;;;;5023184;28;20024;-73
2021/06/17 11:08:16;;;;;;;0.05;0.05;;;34.30;36.70;;;;;;5045830;28;20024;-73
2021/06/17 11:10:49;;;;;;;0.17;0.17;;;34.70;35.60;;;;;;5020771;28;20028;-73
2021/06/17 11:13:49;;;;;;;0.00;0.00;;;34.80;36.10;;;;;;4994743;28;20042;-73
2021/06/17 11:16:15;;;;;;;0.43;0.43;;;34.80;36.40;;;;;;5007883;28;20039;-73
2021/06/17 11:18:41;;;;;;;0.17;0.17;;;34.50;35.30;;;;;;5032835;28;20099;-73
2021/06/17 11:21:31;;;;;;;7.80;1.38;;;34.40;35.70;;;;;;4994343;28;20061;-73
2021/06/17 11:24:21;;;;;;;0.10;0.10;;;34.20;34.30;;;;;;5031918;28;20020;-73
2021/06/17 11:26:50;;;;;;;6.53;1.10;;;34.00;35.10;;;;;;5027429;28;20465;-73
2021/06/17 11:29:19;;;;;;;2.28;1.48;;;34.00;34.20;;;;;;5016349;28;20016;-73
2021/06/17 11:31:47;;;;;;;1.23;1.00;;;34.10;33.60;;;;;;5018836;28;20034;-73
2021/06/17 11:34:15;;;;;;;1.02;0.90;;;34.10;33.10;;;;;;5031000;28;20067;-73
2021/06/17 11:36:51;;;;;;;11.15;1.52;;;33.90;33.10;;;;;;5004515;28;20030;-72
2021/06/17 11:39:25;;;;;;;1.80;0.47;;;33.90;33.20;;;;;;5061131;28;20077;-73
2021/06/17 11:41:51;;;;;;;0.20;0.20;;;33.90;33.70;;;;;;4958860;28;20501;-73
2021/06/17 11:44:23;;;;;;;0.73;0.52;;;33.80;33.70;;;;;;5011864;28;20591;-73
2021/06/17 11:46:53;;;;;;;0.20;0.20;;;33.90;33.40;;;;;;4994904;28;20023;-73
2021/06/17 11:49:19;;;;;;;0.28;0.13;;;34.20;33.40;;;;;;4997259;28;20023;-73
2021/06/17 11:51:51;;;;;;;0.00;0.00;;;34.30;32.90;;;;;;4979803;28;20014;-73
2021/06/17 11:54:21;;;;;;;1.30;0.88;;;34.30;32.80;;;;;;4997281;28;20027;-73
2021/06/17 11:56:59;;;;;;;0.10;0.10;;;34.30;31.50;;;;;;5008380;28;20027;-72
2021/06/17 11:59:32;;;;;;;0.00;0.00;;;34.00;32.80;;;;;;4959593;28;20023;-73
2021/06/17 12:02:09;;;;;;;0.32;0.03;;;34.20;32.40;;;;;;4947689;28;20378;-73
2021/06/17 12:05:01;;;;;;;0.00;0.00;;;34.30;31.20;;;;;;4962178;28;20018;-73
2021/06/17 12:07:39;;;;;;;0.28;0.28;;;34.30;31.20;;;;;;4967855;28;20027;-73
2021/06/17 12:10:23;;;;;;;0.00;0.00;;;34.60;31.70;;;;;;4959207;28;20031;-73
2021/06/17 12:12:51;;;;;;;1.55;0.38;;;34.40;31.70;;;;;;4953845;28;20137;-73
2021/06/17 12:15:28;;;;;;;0.15;0.15;;;34.30;33.10;;;;;;5022138;28;20035;-73
2021/06/17 12:18:05;;;;;;;0.00;0.00;;;34.00;31.70;;;;;;4980799;28;20019;-72
2021/06/17 12:20:36;;;;;;;0.00;0.00;;;34.10;31.80;;;;;;4971113;28;20051;-73
2021/06/17 12:23:07;;;;;;;0.10;0.10;;;34.10;31.50;;;;;;5016096;28;20376;-73
2021/06/17 12:25:36;;;;;;;0.17;0.17;;;33.50;32.10;;;;;;5004252;28;20093;-74
2021/06/17 12:28:05;;;;;;;0.55;0.20;;;33.50;32.90;;;;;;4961042;28;20035;-72
2021/06/17 12:30:33;;;;;;;0.20;0.20;;;33.60;33.30;;;;;;5040696;28;20063;-73
2021/06/17 12:33:21;;;;;;;0.00;0.00;;;33.80;32.90;;;;;;4978408;28;20046;-73
2021/06/17 12:35:55;;;;;;;0.45;0.45;;;33.70;32.50;;;;;;5016802;28;20028;-72
2021/06/17 12:38:36;;;;;;;0.17;0.08;;;33.80;30.70;;;;;;4991338;28;20034;-72
2021/06/17 12:41:16;;;;;;;46.00;1.98;;;33.50;30.40;;;;;;4998873;28;20023;-72
2021/06/17 12:43:46;;;;;;;0.10;0.10;;;33.30;30.10;;;;;;4981325;28;20024;-73
2021/06/17 12:46:13;;;;;;;0.00;0.00;;;33.40;30.00;;;;;;5018776;28;20027;-73
2021/06/17 12:54:00;;;;;;;0.00;0.00;;;33.10;31.00;;;;;;5000873;28;20069;-73
2021/06/17 12:56:26;;;;;;;0.00;0.00;;;32.90;31.70;;;;;;5033666;28;20017;-73
2021/06/17 12:58:53;;;;;;;0.50;0.50;;;32.90;31.30;;;;;;5021615;28;20232;-72
2021/06/17 13:01:23;;;;;;;0.00;0.00;;;32.80;30.50;;;;;;5028956;28;20017;-73
2021/06/17 13:03:51;;;;;;;6.35;1.63;;;32.70;31.90;;;;;;4995512;28;20049;-73
2021/06/17 13:06:36;;;;;;;0.03;0.00;;;32.90;32.80;;;;;;5028916;28;20032;-74
2021/06/17 13:09:03;;;;;;;0.00;0.00;;;32.90;33.40;;;;;;4960183;28;20061;-74
2021/06/17 13:11:30;;;;;;;0.00;0.00;;;32.90;32.80;;;;;;5006946;28;20027;-73